Terminal Aerodrome Forecast
Issued by NWS Missoula, MT

Home | Current Version | Previous Version | Text Only | Print | Product List | Glossary On
Versions: 1 2 3 4 5 6 7 8 9 10 11 12 13 14
000
FTUS45 KMSO 221120
TAFBTM
TAF
KBTM 221120Z 2212/2312 VRB06KT 2SM -SHSN BR OVC025
     FM221400 VRB06KT P6SM VCSH BKN040
     FM221900 31009KT P6SM BKN060
     FM222200 31010KT P6SM -SHSN BKN050=

USA.gov is the U.S. government's official web portal to all federal, state and local government web resources and services.